Time;durP1;ratioP1;P1;durP2;ratioP2;P2;SDS_P1;SDS_P2;PMS_P1;PMS_P2;Temp;Humidity;BMP_temperature;BMP_pressure;BME280_temperature;BME280_humidity;BME280_pressure;Samples;Min_cycle;Max_cycle;Signal;HPM_P1;HPM_P2
2023/09/20 03:32:35;;;;;;;1999.90;999.90;;;;;;;;;;5209218;23;20050;-63
2023/09/20 03:35:01;;;;;;;1999.90;999.90;;;;;;;;;;4974033;28;20506;-70
2023/09/20 03:37:28;;;;;;;1999.90;999.90;;;;;;;;;;4973929;28;20360;-72
2023/09/20 03:39:54;;;;;;;1999.90;999.90;;;;;;;;;;4955915;28;20034;-69
2023/09/20 03:42:26;;;;;;;1999.90;999.90;;;;;;;;;;4973593;28;20035;-76
2023/09/20 03:44:52;;;;;;;1999.90;999.90;;;;;;;;;;4956282;28;20031;-68
2023/09/20 03:47:18;;;;;;;1999.90;999.90;;;;;;;;;;4973294;28;20046;-65
2023/09/20 03:49:44;;;;;;;1999.90;999.90;;;;;;;;;;4973220;28;20042;-67
2023/09/20 03:52:11;;;;;;;1999.90;999.90;;;;;;;;;;4973074;28;20030;-64
2023/09/20 03:54:37;;;;;;;1999.90;999.90;;;;;;;;;;4973348;28;20475;-62
2023/09/20 03:57:04;;;;;;;1999.90;999.90;;;;;;;;;;4972541;28;20497;-71
2023/09/20 03:59:33;;;;;;;1999.90;999.90;;;;;;;;;;4972171;28;20109;-70
2023/09/20 04:01:59;;;;;;;1999.90;999.90;;;;;;;;;;4973100;28;20062;-63
2023/09/20 04:04:25;;;;;;;1999.90;999.90;;;;;;;;;;4972899;28;20042;-70
2023/09/20 04:06:51;;;;;;;1999.90;999.90;;;;;;;;;;4973004;28;20033;-63
2023/09/20 04:09:17;;;;;;;1999.90;999.90;;;;;;;;;;4972974;28;20198;-70
2023/09/20 04:11:43;;;;;;;1999.90;999.90;;;;;;;;;;4973112;28;20158;-66
2023/09/20 04:14:09;;;;;;;1999.90;999.90;;;;;;;;;;4972627;28;20019;-67
2023/09/20 04:16:36;;;;;;;1999.90;999.90;;;;;;;;;;4972982;28;20030;-71
2023/09/20 04:19:04;;;;;;;1999.90;999.90;;;;;;;;;;4973063;28;20054;-67
2023/09/20 04:21:30;;;;;;;1999.90;999.90;;;;;;;;;;4973268;28;20026;-65
2023/09/20 04:23:56;;;;;;;1999.90;999.90;;;;;;;;;;4972826;28;20471;-70
2023/09/20 04:26:23;;;;;;;1999.90;999.90;;;;;;;;;;4972706;28;20026;-67
2023/09/20 04:28:49;;;;;;;1999.90;999.90;;;;;;;;;;4972615;28;20403;-74
2023/09/20 04:31:16;;;;;;;1999.90;999.90;;;;;;;;;;4952312;28;20386;-65
2023/09/20 04:33:42;;;;;;;1999.90;999.90;;;;;;;;;;4972794;28;20110;-64
2023/09/20 04:36:08;;;;;;;1999.90;999.90;;;;;;;;;;4972841;28;20054;-70
2023/09/20 04:38:34;;;;;;;1999.90;999.90;;;;;;;;;;4954335;28;20049;-68
2023/09/20 04:41:00;;;;;;;1999.90;999.90;;;;;;;;;;4972807;28;20530;-66
2023/09/20 04:43:26;;;;;;;1999.90;999.90;;;;;;;;;;4971827;28;20503;-66
2023/09/20 04:45:55;;;;;;;1999.90;999.90;;;;;;;;;;4971554;28;20027;-65
2023/09/20 04:48:28;;;;;;;1999.90;999.90;;;;;;;;;;4972402;28;20038;-80
2023/09/20 04:50:55;;;;;;;1999.90;999.90;;;;;;;;;;4954572;28;20376;-79
2023/09/20 04:53:25;;;;;;;1999.90;999.90;;;;;;;;;;4972311;28;20069;-84
2023/09/20 04:55:51;;;;;;;1999.90;999.90;;;;;;;;;;4972383;28;20026;-73
2023/09/20 04:58:17;;;;;;;1999.90;999.90;;;;;;;;;;4972284;28;20030;-75
2023/09/20 05:00:44;;;;;;;1999.90;999.90;;;;;;;;;;4972449;28;20297;-83
2023/09/20 05:03:15;;;;;;;1999.90;999.90;;;;;;;;;;4971654;28;20039;-83
2023/09/20 05:05:47;;;;;;;1999.90;999.90;;;;;;;;;;4955540;28;20076;-77
2023/09/20 05:08:18;;;;;;;1999.90;999.90;;;;;;;;;;4972003;28;20027;-76
2023/09/20 05:10:44;;;;;;;1999.90;999.90;;;;;;;;;;4955753;28;20060;-77
2023/09/20 05:13:10;;;;;;;1999.90;999.90;;;;;;;;;;4972242;28;20030;-81
2023/09/20 05:15:39;;;;;;;1999.90;999.90;;;;;;;;;;4971771;28;20471;-78
2023/09/20 05:18:07;;;;;;;1999.90;999.90;;;;;;;;;;4972315;28;20478;-77
2023/09/20 05:20:35;;;;;;;1999.90;999.90;;;;;;;;;;4972061;28;20077;-77
2023/09/20 05:23:03;;;;;;;1999.90;999.90;;;;;;;;;;4972431;28;20117;-77
2023/09/20 05:25:31;;;;;;;1999.90;999.90;;;;;;;;;;4971614;28;20470;-78
2023/09/20 05:31:25;;;;;;;1999.90;999.90;;;;;;;;;;4970931;28;20042;-76
2023/09/20 05:33:52;;;;;;;1999.90;999.90;;;;;;;;;;4950380;28;20051;-76
2023/09/20 05:36:28;;;;;;;1999.90;999.90;;;;;;;;;;4971774;28;20027;-76
2023/09/20 05:38:55;;;;;;;1999.90;999.90;;;;;;;;;;4953986;28;20042;-76
2023/09/20 05:41:41;;;;;;;;;;;;;;;;;;;;;
2023/09/20 05:44:07;;;;;;;1999.90;999.90;;;;;;;;;;4970956;28;20042;-76
2023/09/20 05:49:29;;;;;;;1999.90;999.90;;;;;;;;;;4971829;28;20512;-79
2023/09/20 05:51:56;;;;;;;1999.90;999.90;;;;;;;;;;4971900;28;20034;-82
2023/09/20 05:54:22;;;;;;;1999.90;999.90;;;;;;;;;;4971968;28;20027;-79
2023/09/20 05:56:50;;;;;;;1999.90;999.90;;;;;;;;;;4974520;28;20039;-79
2023/09/20 05:59:16;;;;;;;1999.90;999.90;;;;;;;;;;4975373;28;20031;-75
2023/09/20 06:01:42;;;;;;;1999.90;999.90;;;;;;;;;;4975720;28;20023;-73
2023/09/20 06:04:11;;;;;;;1999.90;999.90;;;;;;;;;;4975053;28;20067;-75
2023/09/20 06:06:38;;;;;;;1999.90;999.90;;;;;;;;;;4975266;28;20043;-74
2023/09/20 06:09:04;;;;;;;1999.90;999.90;;;;;;;;;;4975077;28;20077;-75
2023/09/20 06:11:30;;;;;;;1999.90;999.90;;;;;;;;;;4975109;28;20043;-72
2023/09/20 06:13:56;;;;;;;1999.90;999.90;;;;;;;;;;4975156;28;20038;-74
2023/09/20 06:16:40;;;;;;;1999.90;999.90;;;;;;;;;;4975093;28;20019;-77
2023/09/20 06:19:07;;;;;;;1999.90;999.90;;;;;;;;;;4974904;28;20478;-74
2023/09/20 06:21:33;;;;;;;1999.90;999.90;;;;;;;;;;4956978;28;20505;-79
2023/09/20 06:24:02;;;;;;;1999.90;999.90;;;;;;;;;;4974523;28;20126;-76
2023/09/20 06:27:09;;;;;;;1999.90;999.90;;;;;;;;;;4974812;28;20533;-75
2023/09/20 06:38:40;;;;;;;1999.90;999.90;;;;;;;;;;4877177;29;20083;-77
2023/09/20 06:41:06;;;;;;;1999.90;999.90;;;;;;;;;;4877397;29;20120;-76
2023/09/20 06:46:49;;;;;;;1999.90;999.90;;;;;;;;;;4876387;29;20068;-76
2023/09/20 06:49:48;;;;;;;1999.90;999.90;;;;;;;;;;4861581;29;20031;-77
2023/09/20 06:52:14;;;;;;;1999.90;999.90;;;;;;;;;;4877009;29;20077;-74
2023/09/20 06:57:47;;;;;;;1999.90;999.90;;;;;;;;;;4877159;29;20036;-77
2023/09/20 07:00:24;;;;;;;1999.90;999.90;;;;;;;;;;4861927;29;20077;-76
2023/09/20 07:02:57;;;;;;;1999.90;999.90;;;;;;;;;;4876718;29;20413;-76
2023/09/20 07:05:24;;;;;;;;;;;;;;;;;;4877593;29;20049;-76
2023/09/20 07:07:55;;;;;;;1999.90;999.90;;;;;;;;;;4876016;29;19998;-75
2023/09/20 07:10:25;;;;;;;1999.90;999.90;;;;;;;;;;4877132;29;20059;-77
2023/09/20 07:13:32;;;;;;;1999.90;999.90;;;;;;;;;;4940111;28;20049;-76
2023/09/20 07:16:06;;;;;;;1999.90;999.90;;;;;;;;;;4876137;29;20078;-81
2023/09/20 07:21:20;;;;;;;1999.90;999.90;;;;;;;;;;4876534;29;20428;-78
2023/09/20 07:23:47;;;;;;;1999.90;999.90;;;;;;;;;;4876812;29;20128;-79
2023/09/20 07:26:16;;;;;;;1999.90;999.90;;;;;;;;;;4860863;29;20150;-74
2023/09/20 07:28:43;;;;;;;1999.90;999.90;;;;;;;;;;4875998;29;20100;-75
2023/09/20 07:31:16;;;;;;;1999.90;999.90;;;;;;;;;;4875789;29;20033;-75
2023/09/20 07:33:51;;;;;;;1999.90;999.90;;;;;;;;;;4859867;29;20128;-77
2023/09/20 07:36:40;;;;;;;1999.90;999.90;;;;;;;;;;4875367;29;20037;-76
2023/09/20 07:39:12;;;;;;;1999.90;999.90;;;;;;;;;;4876342;29;20125;-74
2023/09/20 07:41:46;;;;;;;1999.90;999.90;;;;;;;;;;4875985;29;20037;-80
2023/09/20 07:44:16;;;;;;;1999.90;999.90;;;;;;;;;;4875876;29;20053;-77
2023/09/20 07:46:42;;;;;;;1999.90;999.90;;;;;;;;;;4861272;29;20037;-75
2023/09/20 07:49:09;;;;;;;1999.90;999.90;;;;;;;;;;4869645;29;20561;-73
2023/09/20 07:51:36;;;;;;;1999.90;999.90;;;;;;;;;;4921322;28;20516;-75
2023/09/20 07:54:09;;;;;;;1999.90;999.90;;;;;;;;;;4963704;28;21243;-75
2023/09/20 07:56:35;;;;;;;1999.90;999.90;;;;;;;;;;4946618;28;20022;-76
2023/09/20 07:59:05;;;;;;;1999.90;999.90;;;;;;;;;;4971602;28;20030;-76
2023/09/20 08:01:31;;;;;;;1999.90;999.90;;;;;;;;;;4972687;28;20110;-75
2023/09/20 08:04:06;;;;;;;1999.90;999.90;;;;;;;;;;4973192;28;20053;-74
2023/09/20 08:06:36;;;;;;;1999.90;999.90;;;;;;;;;;4974670;28;20027;-76
2023/09/20 08:09:09;;;;;;;1999.90;999.90;;;;;;;;;;4970005;28;20427;-73
2023/09/20 08:11:37;;;;;;;1999.90;999.90;;;;;;;;;;4977076;28;20389;-73
2023/09/20 08:14:03;;;;;;;1999.90;999.90;;;;;;;;;;4974946;28;20027;-74
2023/09/20 08:16:33;;;;;;;1999.90;999.90;;;;;;;;;;4966882;28;20066;-74
2023/09/20 08:21:43;;;;;;;1999.90;999.90;;;;;;;;;;4974245;28;20132;-75
2023/09/20 09:02:54;;;;;;;1999.90;999.90;;;;;;;;;;4953903;28;20134;-72
2023/09/20 09:05:24;;;;;;;1999.90;999.90;;;;;;;;;;4952775;28;20114;-72
2023/09/20 09:07:56;;;;;;;1999.90;999.90;;;;;;;;;;4938633;28;20038;-73
2023/09/20 09:10:23;;;;;;;1999.90;999.90;;;;;;;;;;4951620;28;20458;-74
2023/09/20 09:12:49;;;;;;;1999.90;999.90;;;;;;;;;;4954085;28;20120;-73
2023/09/20 09:15:16;;;;;;;1999.90;999.90;;;;;;;;;;4953806;28;20027;-74
2023/09/20 09:17:48;;;;;;;1999.90;999.90;;;;;;;;;;4972070;28;20027;-72
2023/09/20 09:20:15;;;;;;;1999.90;999.90;;;;;;;;;;4971513;28;20035;-73
2023/09/20 09:22:42;;;;;;;1999.90;999.90;;;;;;;;;;4971050;28;20418;-73
2023/09/20 09:25:11;;;;;;;1999.90;999.90;;;;;;;;;;4934468;29;20027;-72
2023/09/20 09:27:43;;;;;;;1999.90;999.90;;;;;;;;;;4964441;28;21403;-72
2023/09/20 09:30:17;;;;;;;1999.90;999.90;;;;;;;;;;4945066;28;20031;-73
2023/09/20 09:32:45;;;;;;;1999.90;999.90;;;;;;;;;;4945743;28;20050;-71
2023/09/20 09:35:18;;;;;;;1999.90;999.90;;;;;;;;;;4959100;28;20586;-73
2023/09/20 09:37:48;;;;;;;1999.90;999.90;;;;;;;;;;4965007;28;20035;-73
2023/09/20 09:40:14;;;;;;;1999.90;999.90;;;;;;;;;;4961279;28;20045;-73
2023/09/20 09:42:43;;;;;;;1999.90;999.90;;;;;;;;;;4966918;28;20207;-76
2023/09/20 09:45:09;;;;;;;1999.90;999.90;;;;;;;;;;4975318;28;20046;-73
2023/09/20 09:47:36;;;;;;;1999.90;999.90;;;;;;;;;;4975067;28;20074;-73
2023/09/20 09:50:03;;;;;;;1999.90;999.90;;;;;;;;;;4975140;28;20470;-74
2023/09/20 09:52:30;;;;;;;1999.90;999.90;;;;;;;;;;4974703;28;20027;-75
2023/09/20 09:54:58;;;;;;;1999.90;999.90;;;;;;;;;;4971193;28;20082;-74
2023/09/20 09:57:30;;;;;;;1999.90;999.90;;;;;;;;;;4944849;29;20043;-74
2023/09/20 09:59:56;;;;;;;1999.90;999.90;;;;;;;;;;4955741;28;20082;-73
2023/09/20 10:02:24;;;;;;;1999.90;999.90;;;;;;;;;;4954986;28;20027;-75
2023/09/20 10:04:55;;;;;;;1999.90;999.90;;;;;;;;;;4938320;29;20090;-75
2023/09/20 10:07:41;;;;;;;1999.90;999.90;;;;;;;;;;4955881;28;20394;-72
2023/09/20 10:10:13;;;;;;;1999.90;999.90;;;;;;;;;;4944030;28;20039;-74
2023/09/20 10:12:41;;;;;;;1999.90;999.90;;;;;;;;;;4960416;28;20490;-74
2023/09/20 10:15:07;;;;;;;1999.90;999.90;;;;;;;;;;4955339;28;20610;-73
2023/09/20 10:17:34;;;;;;;1999.90;999.90;;;;;;;;;;4957203;28;20110;-73
2023/09/20 10:20:07;;;;;;;1999.90;999.90;;;;;;;;;;4955184;28;20499;-73
2023/09/20 10:22:40;;;;;;;1999.90;999.90;;;;;;;;;;4955074;29;20082;-73
2023/09/20 10:25:26;;;;;;;1999.90;999.90;;;;;;;;;;4956922;28;20034;-74
2023/09/20 10:27:58;;;;;;;1999.90;999.90;;;;;;;;;;4955062;28;20034;-74
2023/09/20 10:30:28;;;;;;;1999.90;999.90;;;;;;;;;;4938585;29;20601;-73
2023/09/20 10:32:57;;;;;;;1999.90;999.90;;;;;;;;;;4939473;29;20066;-73
2023/09/20 10:35:29;;;;;;;1999.90;999.90;;;;;;;;;;4973445;28;20030;-73
2023/09/20 10:38:08;;;;;;;1999.90;999.90;;;;;;;;;;4974300;28;20107;-74
2023/09/20 10:40:50;;;;;;;1999.90;999.90;;;;;;;;;;4974092;28;20109;-74
2023/09/20 10:43:20;;;;;;;1999.90;999.90;;;;;;;;;;4973797;28;20474;-75
2023/09/20 10:45:54;;;;;;;1999.90;999.90;;;;;;;;;;4974961;28;20062;-75
2023/09/20 10:48:23;;;;;;;1999.90;999.90;;;;;;;;;;4977142;28;20074;-73
2023/09/20 10:50:50;;;;;;;1999.90;999.90;;;;;;;;;;4976894;28;20453;-76
2023/09/20 10:53:19;;;;;;;1999.90;999.90;;;;;;;;;;4975351;28;20046;-77
2023/09/20 10:55:52;;;;;;;1999.90;999.90;;;;;;;;;;4977096;28;20477;-75
2023/09/20 10:58:23;;;;;;;1999.90;999.90;;;;;;;;;;4980841;28;20054;-76
2023/09/20 11:00:50;;;;;;;1999.90;999.90;;;;;;;;;;4956858;28;20110;-74
2023/09/20 11:03:18;;;;;;;1999.90;999.90;;;;;;;;;;4961801;28;20035;-73
2023/09/20 11:05:44;;;;;;;1999.90;999.90;;;;;;;;;;4965287;28;20027;-73
2023/09/20 11:08:13;;;;;;;1999.90;999.90;;;;;;;;;;4962004;28;20026;-74
2023/09/20 11:10:46;;;;;;;1999.90;999.90;;;;;;;;;;4963958;28;20054;-73
2023/09/20 11:13:14;;;;;;;1999.90;999.90;;;;;;;;;;4959928;28;20479;-73
2023/09/20 11:15:46;;;;;;;1999.90;999.90;;;;;;;;;;4963697;28;20386;-73
2023/09/20 11:18:19;;;;;;;1999.90;999.90;;;;;;;;;;4964428;28;20083;-75
2023/09/20 11:20:48;;;;;;;1999.90;999.90;;;;;;;;;;4962905;28;20053;-73
2023/09/20 11:23:15;;;;;;;1999.90;999.90;;;;;;;;;;4963243;28;20062;-73
2023/09/20 11:25:41;;;;;;;1999.90;999.90;;;;;;;;;;4964303;28;20069;-74
2023/09/20 11:28:09;;;;;;;1999.90;999.90;;;;;;;;;;4960260;28;20119;-74
2023/09/20 11:30:35;;;;;;;1999.90;999.90;;;;;;;;;;4964596;28;20035;-73
2023/09/20 11:33:21;;;;;;;1999.90;999.90;;;;;;;;;;4954077;29;20102;-75
2023/09/20 11:35:47;;;;;;;1999.90;999.90;;;;;;;;;;4936869;29;20054;-74
2023/09/20 11:38:15;;;;;;;1999.90;999.90;;;;;;;;;;4936567;29;20039;-74
2023/09/20 11:40:41;;;;;;;1999.90;999.90;;;;;;;;;;4971122;28;20166;-76
2023/09/20 11:43:09;;;;;;;1999.90;999.90;;;;;;;;;;4962978;28;20043;-75
2023/09/20 11:45:38;;;;;;;1999.90;999.90;;;;;;;;;;4966483;28;20106;-75
2023/09/20 11:48:13;;;;;;;1999.90;999.90;;;;;;;;;;4954926;28;20399;-76
2023/09/20 11:50:45;;;;;;;1999.90;999.90;;;;;;;;;;4973329;28;20027;-78
2023/09/20 11:53:26;;;;;;;1999.90;999.90;;;;;;;;;;4966675;28;20502;-80
2023/09/20 11:55:54;;;;;;;1999.90;999.90;;;;;;;;;;4940721;28;20541;-83
2023/09/20 11:58:23;;;;;;;1999.90;999.90;;;;;;;;;;4956067;28;20372;-77
2023/09/20 12:00:52;;;;;;;1999.90;999.90;;;;;;;;;;4955320;28;20101;-80
2023/09/20 12:03:18;;;;;;;1999.90;999.90;;;;;;;;;;4955900;28;20486;-80
2023/09/20 12:05:44;;;;;;;1999.90;999.90;;;;;;;;;;4956369;28;20027;-79
2023/09/20 12:08:10;;;;;;;1999.90;999.90;;;;;;;;;;4971032;28;20031;-78
2023/09/20 12:10:40;;;;;;;1999.90;999.90;;;;;;;;;;4966612;28;20023;-80
2023/09/20 12:13:06;;;;;;;1999.90;999.90;;;;;;;;;;4954475;28;20037;-82
2023/09/20 12:15:32;;;;;;;1999.90;999.90;;;;;;;;;;4937744;29;20384;-80
2023/09/20 12:17:59;;;;;;;1999.90;999.90;;;;;;;;;;4937019;29;20106;-80
2023/09/20 12:20:25;;;;;;;1999.90;999.90;;;;;;;;;;4953777;28;20042;-81
2023/09/20 12:22:53;;;;;;;1999.90;999.90;;;;;;;;;;4966080;28;20043;-80
2023/09/20 12:25:22;;;;;;;1999.90;999.90;;;;;;;;;;4962997;28;20110;-76
2023/09/20 12:27:51;;;;;;;1999.90;999.90;;;;;;;;;;4949322;28;20034;-81
2023/09/20 12:30:17;;;;;;;1999.90;999.90;;;;;;;;;;4955050;28;20549;-80
2023/09/20 12:32:43;;;;;;;1999.90;999.90;;;;;;;;;;4974671;28;20078;-78
2023/09/20 12:35:11;;;;;;;1999.90;999.90;;;;;;;;;;4975572;28;20038;-82
2023/09/20 12:37:37;;;;;;;1999.90;999.90;;;;;;;;;;4971363;28;20022;-82
2023/09/20 12:40:14;;;;;;;1999.90;999.90;;;;;;;;;;4972013;28;20102;-82
2023/09/20 12:42:40;;;;;;;1999.90;999.90;;;;;;;;;;4906281;28;20030;-78
2023/09/20 12:45:07;;;;;;;1999.90;999.90;;;;;;;;;;4911873;29;20225;-78
2023/09/20 12:47:34;;;;;;;1999.90;999.90;;;;;;;;;;4911899;29;20149;-78
2023/09/20 12:50:14;;;;;;;1999.90;999.90;;;;;;;;;;4896680;29;20032;-76
2023/09/20 12:52:46;;;;;;;1999.90;999.90;;;;;;;;;;4896240;29;20032;-76
2023/09/20 12:55:13;;;;;;;1999.90;999.90;;;;;;;;;;4912202;29;20047;-78
2023/09/20 12:57:40;;;;;;;1999.90;999.90;;;;;;;;;;4912381;29;20040;-79
2023/09/20 13:00:08;;;;;;;1999.90;999.90;;;;;;;;;;4912095;29;20365;-81
2023/09/20 13:02:34;;;;;;;1999.90;999.90;;;;;;;;;;4911680;29;20032;-78
2023/09/20 13:05:03;;;;;;;1999.90;999.90;;;;;;;;;;4911185;29;20115;-79
2023/09/20 13:07:30;;;;;;;1999.90;999.90;;;;;;;;;;4911453;29;20024;-79
2023/09/20 13:10:04;;;;;;;1999.90;999.90;;;;;;;;;;4912190;29;20036;-76
2023/09/20 13:12:40;;;;;;;1999.90;999.90;;;;;;;;;;4911754;29;20119;-78
2023/09/20 13:15:08;;;;;;;1999.90;999.90;;;;;;;;;;4900951;28;20108;-84
2023/09/20 13:17:34;;;;;;;1999.90;999.90;;;;;;;;;;4953713;28;20039;-80
2023/09/20 13:20:01;;;;;;;1999.90;999.90;;;;;;;;;;4971807;28;20074;-80
2023/09/20 13:22:32;;;;;;;1999.90;999.90;;;;;;;;;;4971690;28;20029;-77
2023/09/20 13:25:00;;;;;;;1999.90;999.90;;;;;;;;;;4952201;28;20047;-81
2023/09/20 13:27:26;;;;;;;1999.90;999.90;;;;;;;;;;4953644;28;20038;-80
2023/09/20 13:29:54;;;;;;;1999.90;999.90;;;;;;;;;;4954207;28;20031;-81
2023/09/20 13:32:20;;;;;;;1999.90;999.90;;;;;;;;;;4953733;28;20062;-82
2023/09/20 13:34:46;;;;;;;1999.90;999.90;;;;;;;;;;4954673;28;20031;-78
2023/09/20 13:37:13;;;;;;;1999.90;999.90;;;;;;;;;;4971522;28;20027;-77
2023/09/20 13:39:42;;;;;;;1999.90;999.90;;;;;;;;;;4970735;28;20026;-77
2023/09/20 13:42:15;;;;;;;1999.90;999.90;;;;;;;;;;4966451;28;20538;-76
2023/09/20 13:44:42;;;;;;;1999.90;999.90;;;;;;;;;;4941418;28;20529;-76
2023/09/20 13:47:09;;;;;;;1999.90;999.90;;;;;;;;;;4941088;28;20089;-80
2023/09/20 13:49:36;;;;;;;1999.90;999.90;;;;;;;;;;4952324;28;20031;-78
2023/09/20 13:52:05;;;;;;;1999.90;999.90;;;;;;;;;;4934537;29;20118;-77
2023/09/20 13:54:31;;;;;;;1999.90;999.90;;;;;;;;;;4952169;28;20047;-79
2023/09/20 13:57:05;;;;;;;1999.90;999.90;;;;;;;;;;4952058;29;20159;-80
2023/09/20 13:59:31;;;;;;;1999.90;999.90;;;;;;;;;;4958019;28;20101;-77
2023/09/20 14:01:59;;;;;;;1999.90;999.90;;;;;;;;;;4971560;28;20026;-77
2023/09/20 14:04:25;;;;;;;1999.90;999.90;;;;;;;;;;4954005;28;20101;-80
2023/09/20 14:06:52;;;;;;;1999.90;999.90;;;;;;;;;;4972179;28;20042;-80
2023/09/20 14:09:19;;;;;;;1999.90;999.90;;;;;;;;;;4971075;28;20034;-82
2023/09/20 14:11:45;;;;;;;1999.90;999.90;;;;;;;;;;4971840;28;20105;-81
2023/09/20 14:14:11;;;;;;;1999.90;999.90;;;;;;;;;;4972123;28;20051;-84
2023/09/20 14:16:38;;;;;;;1999.90;999.90;;;;;;;;;;4955054;28;20029;-84
2023/09/20 14:19:05;;;;;;;1999.90;999.90;;;;;;;;;;4956963;28;20486;-78
2023/09/20 14:21:31;;;;;;;1999.90;999.90;;;;;;;;;;4975965;28;20034;-77
2023/09/20 14:23:58;;;;;;;1999.90;999.90;;;;;;;;;;4974942;28;20043;-80
2023/09/20 14:26:30;;;;;;;1999.90;999.90;;;;;;;;;;4975247;28;20525;-79
2023/09/20 14:28:57;;;;;;;1999.90;999.90;;;;;;;;;;4957328;28;20117;-72
2023/09/20 14:31:23;;;;;;;1999.90;999.90;;;;;;;;;;4957180;28;20030;-80
2023/09/20 14:33:49;;;;;;;1999.90;999.90;;;;;;;;;;4956698;28;20470;-80
2023/09/20 14:36:18;;;;;;;1999.90;999.90;;;;;;;;;;4978874;28;20078;-75
2023/09/20 14:38:44;;;;;;;1999.90;999.90;;;;;;;;;;4957163;28;20479;-79
2023/09/20 14:41:10;;;;;;;1999.90;999.90;;;;;;;;;;4974961;28;20035;-78
2023/09/20 14:43:44;;;;;;;1999.90;999.90;;;;;;;;;;4974464;28;20047;-78
2023/09/20 14:46:10;;;;;;;1999.90;999.90;;;;;;;;;;4974634;28;20030;-78
2023/09/20 14:48:37;;;;;;;1999.90;999.90;;;;;;;;;;4974838;28;20386;-78
2023/09/20 14:51:03;;;;;;;1999.90;999.90;;;;;;;;;;4975080;28;20054;-75
2023/09/20 14:53:30;;;;;;;1999.90;999.90;;;;;;;;;;4956873;28;20494;-78
2023/09/20 14:55:56;;;;;;;1999.90;999.90;;;;;;;;;;4974563;28;20037;-75
2023/09/20 14:58:29;;;;;;;1999.90;999.90;;;;;;;;;;4974819;28;20430;-80
2023/09/20 15:00:55;;;;;;;1999.90;999.90;;;;;;;;;;4945058;28;20453;-80
2023/09/20 15:03:21;;;;;;;1999.90;999.90;;;;;;;;;;4947445;28;20046;-76
2023/09/20 15:05:47;;;;;;;1999.90;999.90;;;;;;;;;;4963544;28;20046;-75
2023/09/20 15:08:13;;;;;;;1999.90;999.90;;;;;;;;;;4963447;28;20027;-81
2023/09/20 15:10:48;;;;;;;1999.90;999.90;;;;;;;;;;4965944;28;20026;-86
2023/09/20 15:13:14;;;;;;;1999.90;999.90;;;;;;;;;;4956073;28;20094;-80
2023/09/20 15:15:45;;;;;;;1999.90;999.90;;;;;;;;;;4956722;28;20034;-77
2023/09/20 15:18:13;;;;;;;1999.90;999.90;;;;;;;;;;4974187;28;20484;-81
2023/09/20 15:21:15;;;;;;;1999.90;999.90;;;;;;;;;;4974131;28;20019;-78
2023/09/20 15:26:46;;;;;;;1999.90;999.90;;;;;;;;;;4973773;28;20062;-73
2023/09/20 15:29:16;;;;;;;1999.90;999.90;;;;;;;;;;4972642;28;20085;-75
2023/09/20 15:31:48;;;;;;;1999.90;999.90;;;;;;;;;;4955917;28;20474;-76
2023/09/20 15:34:20;;;;;;;1999.90;999.90;;;;;;;;;;4956499;28;20050;-78
2023/09/20 15:36:46;;;;;;;1999.90;999.90;;;;;;;;;;4958464;28;20077;-82
2023/09/20 15:39:13;;;;;;;1999.90;999.90;;;;;;;;;;4973152;28;20387;-84
2023/09/20 15:41:45;;;;;;;1999.90;999.90;;;;;;;;;;4957810;28;20035;-81
2023/09/20 15:44:11;;;;;;;1999.90;999.90;;;;;;;;;;4957492;28;20531;-83
2023/09/20 15:46:38;;;;;;;1999.90;999.90;;;;;;;;;;4958362;28;20069;-84
2023/09/20 15:49:05;;;;;;;1999.90;999.90;;;;;;;;;;4974400;28;20098;-77
2023/09/20 15:51:31;;;;;;;1999.90;999.90;;;;;;;;;;4958178;28;20030;-79
2023/09/20 15:54:14;;;;;;;1999.90;999.90;;;;;;;;;;4938566;29;20165;-81
2023/09/20 15:56:40;;;;;;;1999.90;999.90;;;;;;;;;;4938046;29;20047;-80
2023/09/20 15:59:07;;;;;;;1999.90;999.90;;;;;;;;;;4937261;29;20058;-80
2023/09/20 16:01:36;;;;;;;1999.90;999.90;;;;;;;;;;4938181;28;20517;-81
2023/09/20 16:04:12;;;;;;;1999.90;999.90;;;;;;;;;;4958563;28;20035;-86
2023/09/20 16:06:45;;;;;;;1999.90;999.90;;;;;;;;;;4956319;28;20034;-87
2023/09/20 16:09:13;;;;;;;1999.90;999.90;;;;;;;;;;4956785;28;20034;-88
2023/09/20 16:12:01;;;;;;;1999.90;999.90;;;;;;;;;;4938685;29;20117;-90
2023/09/20 16:15:01;;;;;;;1999.90;999.90;;;;;;;;;;4954822;28;20035;-78
2023/09/20 16:17:52;;;;;;;1999.90;999.90;;;;;;;;;;4913967;29;20555;-79
2023/09/20 16:20:21;;;;;;;1999.90;999.90;;;;;;;;;;4914093;29;20038;-82
2023/09/20 16:23:21;;;;;;;1999.90;999.90;;;;;;;;;;4914372;29;20044;-84
2023/09/20 16:25:47;;;;;;;1999.90;999.90;;;;;;;;;;4915618;29;20039;-83
2023/09/20 16:28:13;;;;;;;1999.90;999.90;;;;;;;;;;4914380;29;20032;-87
2023/09/20 16:30:42;;;;;;;1999.90;999.90;;;;;;;;;;4914350;29;20044;-85
2023/09/20 16:33:10;;;;;;;1999.90;999.90;;;;;;;;;;4913257;29;20048;-74
2023/09/20 16:35:39;;;;;;;1999.90;999.90;;;;;;;;;;4913985;29;20106;-73
2023/09/20 16:38:06;;;;;;;1999.90;999.90;;;;;;;;;;4913313;29;20040;-76
2023/09/20 16:43:27;;;;;;;1999.90;999.90;;;;;;;;;;4953794;28;20047;-77
2023/09/20 16:45:56;;;;;;;1999.90;999.90;;;;;;;;;;4971796;28;20022;-75
2023/09/20 16:48:23;;;;;;;1999.90;999.90;;;;;;;;;;4972016;28;20034;-73
2023/09/20 16:50:49;;;;;;;1999.90;999.90;;;;;;;;;;4971565;28;20040;-73
2023/09/20 16:53:15;;;;;;;1999.90;999.90;;;;;;;;;;4971602;28;20058;-73
2023/09/20 16:55:41;;;;;;;1999.90;999.90;;;;;;;;;;4971874;28;20143;-74
2023/09/20 16:58:08;;;;;;;1999.90;999.90;;;;;;;;;;4971565;28;20557;-72
2023/09/20 17:00:37;;;;;;;1999.90;999.90;;;;;;;;;;4970922;28;20027;-73
2023/09/20 17:03:04;;;;;;;1999.90;999.90;;;;;;;;;;4971800;28;20498;-73
2023/09/20 17:05:30;;;;;;;1999.90;999.90;;;;;;;;;;4971644;28;20030;-75
2023/09/20 17:07:57;;;;;;;1999.90;999.90;;;;;;;;;;4972033;28;20027;-72
2023/09/20 17:10:28;;;;;;;1999.90;999.90;;;;;;;;;;4971102;28;20395;-72
2023/09/20 17:12:54;;;;;;;1999.90;999.90;;;;;;;;;;4971132;28;20046;-74
2023/09/20 17:15:21;;;;;;;1999.90;999.90;;;;;;;;;;4953769;28;20039;-75
2023/09/20 17:17:51;;;;;;;1999.90;999.90;;;;;;;;;;4971490;28;20149;-72
2023/09/20 17:20:17;;;;;;;1999.90;999.90;;;;;;;;;;4946262;28;20019;-71
2023/09/20 17:22:43;;;;;;;1999.90;999.90;;;;;;;;;;4961182;28;20098;-72
2023/09/20 17:25:18;;;;;;;1999.90;999.90;;;;;;;;;;4968278;28;20093;-72
2023/09/20 17:27:46;;;;;;;1999.90;999.90;;;;;;;;;;4953256;28;20126;-71
2023/09/20 17:30:17;;;;;;;1999.90;999.90;;;;;;;;;;4970793;28;20106;-72
2023/09/20 17:32:43;;;;;;;1999.90;999.90;;;;;;;;;;4953197;28;20866;-71
2023/09/20 17:35:10;;;;;;;1999.90;999.90;;;;;;;;;;4970546;28;20386;-72
2023/09/20 17:37:40;;;;;;;1999.90;999.90;;;;;;;;;;4970992;28;20026;-74
2023/09/20 17:40:06;;;;;;;1999.90;999.90;;;;;;;;;;4969959;28;20027;-73
2023/09/20 17:42:36;;;;;;;1999.90;999.90;;;;;;;;;;4970251;28;20181;-74
2023/09/20 17:45:05;;;;;;;1999.90;999.90;;;;;;;;;;4971073;28;20039;-74
2023/09/20 17:47:32;;;;;;;1999.90;999.90;;;;;;;;;;4970689;28;20031;-74
2023/09/20 17:50:01;;;;;;;1999.90;999.90;;;;;;;;;;4970903;28;20445;-74
2023/09/20 17:52:27;;;;;;;1999.90;999.90;;;;;;;;;;4972657;28;20039;-75
2023/09/20 17:54:54;;;;;;;1999.90;999.90;;;;;;;;;;4975166;28;20039;-76
2023/09/20 17:57:23;;;;;;;1999.90;999.90;;;;;;;;;;4974895;28;20042;-75
2023/09/20 17:59:49;;;;;;;1999.90;999.90;;;;;;;;;;4956747;28;20501;-75
2023/09/20 18:02:16;;;;;;;1999.90;999.90;;;;;;;;;;4956406;28;20039;-76
2023/09/20 18:04:46;;;;;;;1999.90;999.90;;;;;;;;;;4974697;28;20039;-73
2023/09/20 18:07:12;;;;;;;1999.90;999.90;;;;;;;;;;4956879;28;20025;-75
2023/09/20 18:09:38;;;;;;;1999.90;999.90;;;;;;;;;;4957319;28;20037;-75
2023/09/20 18:12:04;;;;;;;1999.90;999.90;;;;;;;;;;4974382;28;20026;-76
2023/09/20 18:14:30;;;;;;;1999.90;999.90;;;;;;;;;;4975014;28;20038;-75
2023/09/20 18:16:57;;;;;;;1999.90;999.90;;;;;;;;;;4974613;28;20090;-75
2023/09/20 18:19:26;;;;;;;1999.90;999.90;;;;;;;;;;4975089;28;20047;-74
2023/09/20 18:21:53;;;;;;;1999.90;999.90;;;;;;;;;;4974396;28;20132;-74
2023/09/20 18:24:21;;;;;;;1999.90;999.90;;;;;;;;;;4974215;28;20039;-76
2023/09/20 18:26:48;;;;;;;1999.90;999.90;;;;;;;;;;4957004;28;20177;-76
2023/09/20 18:29:18;;;;;;;1999.90;999.90;;;;;;;;;;4938102;29;20756;-74
2023/09/20 18:31:47;;;;;;;1999.90;999.90;;;;;;;;;;4937292;29;20032;-73
2023/09/20 18:34:46;;;;;;;1999.90;999.90;;;;;;;;;;5167084;23;20034;31
2023/09/20 18:37:29;;;;;;;1999.90;999.90;;;;;;;;;;4897881;29;20060;-72